sensor_id;sensor_type;location;lat;lon;timestamp;P1;durP1;ratioP1;P2;durP2;ratioP2
73421;SDS011;61637;47.760;-122.022;2024-01-16T00:00:00;18.1;;;16.6;;
73421;SDS011;61637;47.760;-122.022;2024-01-16T00:02:00;18.1;;;16.6;;
73421;SDS011;61637;47.760;-122.022;2024-01-16T00:04:00;17.1;;;15.6;;
73421;SDS011;61637;47.760;-122.022;2024-01-16T00:06:01;19.8;;;18.0;;
73421;SDS011;61637;47.760;-122.022;2024-01-16T00:08:01;19.1;;;17.2;;
73421;SDS011;61637;47.760;-122.022;2024-01-16T00:10:01;17.7;;;16.1;;
73421;SDS011;61637;47.760;-122.022;2024-01-16T00:12:02;18.2;;;16.5;;
73421;SDS011;61637;47.760;-122.022;2024-01-16T00:14:00;17.9;;;16.3;;
73421;SDS011;61637;47.760;-122.022;2024-01-16T00:16:02;17.9;;;16.3;;
73421;SDS011;61637;47.760;-122.022;2024-01-16T00:18:00;17.9;;;16.3;;
73421;SDS011;61637;47.760;-122.022;2024-01-16T00:20:00;17.8;;;16.3;;
73421;SDS011;61637;47.760;-122.022;2024-01-16T00:22:02;17.6;;;16.0;;
73421;SDS011;61637;47.760;-122.022;2024-01-16T00:24:00;16.9;;;15.3;;
73421;SDS011;61637;47.760;-122.022;2024-01-16T00:26:00;17.8;;;16.2;;
73421;SDS011;61637;47.760;-122.022;2024-01-16T00:28:02;17.8;;;16.1;;
73421;SDS011;61637;47.760;-122.022;2024-01-16T00:30:00;18.1;;;16.5;;
73421;SDS011;61637;47.760;-122.022;2024-01-16T00:32:00;17.2;;;15.7;;
73421;SDS011;61637;47.760;-122.022;2024-01-16T00:34:01;17.7;;;16.1;;
73421;SDS011;61637;47.760;-122.022;2024-01-16T00:36:00;17.7;;;16.2;;
73421;SDS011;61637;47.760;-122.022;2024-01-16T00:38:00;17.3;;;15.8;;
73421;SDS011;61637;47.760;-122.022;2024-01-16T00:40:01;16.8;;;15.4;;
73421;SDS011;61637;47.760;-122.022;2024-01-16T00:42:01;17.4;;;15.9;;
73421;SDS011;61637;47.760;-122.022;2024-01-16T00:44:01;17.6;;;15.9;;
73421;SDS011;61637;47.760;-122.022;2024-01-16T00:46:01;17.7;;;16.0;;
73421;SDS011;61637;47.760;-122.022;2024-01-16T00:48:00;17.9;;;16.3;;
73421;SDS011;61637;47.760;-122.022;2024-01-16T00:50:01;17.7;;;16.1;;
73421;SDS011;61637;47.760;-122.022;2024-01-16T00:52:00;17.0;;;15.5;;
73421;SDS011;61637;47.760;-122.022;2024-01-16T00:54:00;17.5;;;15.8;;
73421;SDS011;61637;47.760;-122.022;2024-01-16T00:56:00;17.5;;;15.9;;
73421;SDS011;61637;47.760;-122.022;2024-01-16T00:58:01;17.5;;;15.9;;
73421;SDS011;61637;47.760;-122.022;2024-01-16T01:00:00;18.0;;;16.2;;
73421;SDS011;61637;47.760;-122.022;2024-01-16T01:02:00;17.3;;;15.8;;
73421;SDS011;61637;47.760;-122.022;2024-01-16T01:04:00;17.0;;;15.2;;
73421;SDS011;61637;47.760;-122.022;2024-01-16T01:06:00;17.3;;;15.7;;
73421;SDS011;61637;47.760;-122.022;2024-01-16T01:08:01;16.6;;;15.1;;
73421;SDS011;61637;47.760;-122.022;2024-01-16T01:10:02;16.9;;;15.4;;
73421;SDS011;61637;47.760;-122.022;2024-01-16T01:12:01;17.4;;;15.8;;
73421;SDS011;61637;47.760;-122.022;2024-01-16T01:14:00;17.3;;;15.8;;
73421;SDS011;61637;47.760;-122.022;2024-01-16T01:16:00;16.7;;;15.3;;
73421;SDS011;61637;47.760;-122.022;2024-01-16T01:18:00;16.2;;;14.8;;
73421;SDS011;61637;47.760;-122.022;2024-01-16T01:20:00;17.5;;;16.0;;
73421;SDS011;61637;47.760;-122.022;2024-01-16T01:22:01;16.1;;;14.7;;
73421;SDS011;61637;47.760;-122.022;2024-01-16T01:24:01;17.7;;;16.2;;
73421;SDS011;61637;47.760;-122.022;2024-01-16T01:26:00;19.0;;;17.3;;
73421;SDS011;61637;47.760;-122.022;2024-01-16T01:28:01;17.5;;;16.0;;
73421;SDS011;61637;47.760;-122.022;2024-01-16T01:30:00;16.8;;;15.3;;
73421;SDS011;61637;47.760;-122.022;2024-01-16T01:32:00;17.6;;;15.9;;
73421;SDS011;61637;47.760;-122.022;2024-01-16T01:34:01;17.8;;;16.2;;
73421;SDS011;61637;47.760;-122.022;2024-01-16T01:36:00;16.4;;;14.9;;
73421;SDS011;61637;47.760;-122.022;2024-01-16T01:38:01;17.9;;;16.4;;
73421;SDS011;61637;47.760;-122.022;2024-01-16T01:40:00;17.4;;;15.9;;
73421;SDS011;61637;47.760;-122.022;2024-01-16T01:42:00;17.7;;;16.2;;
73421;SDS011;61637;47.760;-122.022;2024-01-16T01:44:01;16.6;;;15.1;;
73421;SDS011;61637;47.760;-122.022;2024-01-16T01:46:09;17.0;;;15.5;;
73421;SDS011;61637;47.760;-122.022;2024-01-16T01:48:00;18.0;;;16.2;;
73421;SDS011;61637;47.760;-122.022;2024-01-16T01:50:01;16.6;;;15.1;;
73421;SDS011;61637;47.760;-122.022;2024-01-16T01:52:01;16.7;;;15.2;;
73421;SDS011;61637;47.760;-122.022;2024-01-16T01:54:01;17.1;;;15.6;;
73421;SDS011;61637;47.760;-122.022;2024-01-16T01:56:03;17.9;;;16.4;;
73421;SDS011;61637;47.760;-122.022;2024-01-16T01:58:01;17.7;;;16.2;;
73421;SDS011;61637;47.760;-122.022;2024-01-16T02:00:01;17.7;;;16.1;;
73421;SDS011;61637;47.760;-122.022;2024-01-16T02:02:01;17.5;;;16.0;;
73421;SDS011;61637;47.760;-122.022;2024-01-16T02:04:01;20.1;;;18.3;;
73421;SDS011;61637;47.760;-122.022;2024-01-16T02:06:01;31.9;;;26.1;;
73421;SDS011;61637;47.760;-122.022;2024-01-16T02:08:02;28.0;;;23.6;;
73421;SDS011;61637;47.760;-122.022;2024-01-16T02:10:02;59.9;;;38.3;;
73421;SDS011;61637;47.760;-122.022;2024-01-16T02:12:01;182.6;;;77.7;;
73421;SDS011;61637;47.760;-122.022;2024-01-16T02:14:01;211.5;;;88.2;;
73421;SDS011;61637;47.760;-122.022;2024-01-16T02:16:01;128.8;;;56.3;;
73421;SDS011;61637;47.760;-122.022;2024-01-16T02:18:01;127.9;;;58.6;;
73421;SDS011;61637;47.760;-122.022;2024-01-16T02:20:00;96.7;;;47.7;;
73421;SDS011;61637;47.760;-122.022;2024-01-16T02:22:05;76.0;;;40.0;;
73421;SDS011;61637;47.760;-122.022;2024-01-16T02:24:01;53.2;;;32.2;;
73421;SDS011;61637;47.760;-122.022;2024-01-16T02:26:02;59.7;;;35.1;;
73421;SDS011;61637;47.760;-122.022;2024-01-16T02:28:01;33.0;;;24.5;;
73421;SDS011;61637;47.760;-122.022;2024-01-16T02:30:00;27.3;;;22.4;;
73421;SDS011;61637;47.760;-122.022;2024-01-16T02:32:00;25.1;;;21.8;;
73421;SDS011;61637;47.760;-122.022;2024-01-16T02:34:01;21.7;;;18.2;;
73421;SDS011;61637;47.760;-122.022;2024-01-16T02:36:01;29.3;;;22.6;;
73421;SDS011;61637;47.760;-122.022;2024-01-16T02:38:01;23.9;;;20.1;;
73421;SDS011;61637;47.760;-122.022;2024-01-16T02:40:00;24.0;;;20.6;;
73421;SDS011;61637;47.760;-122.022;2024-01-16T02:42:01;23.0;;;20.2;;
73421;SDS011;61637;47.760;-122.022;2024-01-16T02:44:00;20.4;;;17.9;;
73421;SDS011;61637;47.760;-122.022;2024-01-16T02:46:00;21.1;;;18.9;;
73421;SDS011;61637;47.760;-122.022;2024-01-16T02:48:01;21.5;;;19.3;;
73421;SDS011;61637;47.760;-122.022;2024-01-16T02:50:01;20.7;;;18.6;;
73421;SDS011;61637;47.760;-122.022;2024-01-16T02:52:00;20.4;;;18.4;;
73421;SDS011;61637;47.760;-122.022;2024-01-16T02:54:01;19.4;;;17.4;;
73421;SDS011;61637;47.760;-122.022;2024-01-16T02:56:01;20.3;;;18.1;;
73421;SDS011;61637;47.760;-122.022;2024-01-16T02:58:00;20.6;;;18.6;;
73421;SDS011;61637;47.760;-122.022;2024-01-16T03:00:01;19.0;;;17.0;;
73421;SDS011;61637;47.760;-122.022;2024-01-16T03:02:00;18.4;;;16.6;;
73421;SDS011;61637;47.760;-122.022;2024-01-16T03:04:00;18.3;;;16.7;;
73421;SDS011;61637;47.760;-122.022;2024-01-16T03:06:01;16.1;;;14.4;;
73421;SDS011;61637;47.760;-122.022;2024-01-16T03:08:00;19.1;;;17.3;;
73421;SDS011;61637;47.760;-122.022;2024-01-16T03:10:00;18.5;;;16.8;;
73421;SDS011;61637;47.760;-122.022;2024-01-16T03:12:01;19.1;;;17.4;;
73421;SDS011;61637;47.760;-122.022;2024-01-16T03:14:00;17.0;;;15.4;;
73421;SDS011;61637;47.760;-122.022;2024-01-16T03:16:00;17.8;;;16.1;;
73421;SDS011;61637;47.760;-122.022;2024-01-16T03:18:01;18.2;;;16.6;;
73421;SDS011;61637;47.760;-122.022;2024-01-16T03:20:01;18.7;;;17.0;;
73421;SDS011;61637;47.760;-122.022;2024-01-16T03:22:00;17.3;;;15.7;;
73421;SDS011;61637;47.760;-122.022;2024-01-16T03:24:00;16.6;;;15.1;;
73421;SDS011;61637;47.760;-122.022;2024-01-16T03:26:00;16.7;;;15.1;;
73421;SDS011;61637;47.760;-122.022;2024-01-16T03:28:00;16.0;;;14.6;;
73421;SDS011;61637;47.760;-122.022;2024-01-16T03:30:02;15.4;;;14.0;;
73421;SDS011;61637;47.760;-122.022;2024-01-16T03:32:02;16.4;;;14.8;;
73421;SDS011;61637;47.760;-122.022;2024-01-16T03:34:00;15.4;;;14.0;;
73421;SDS011;61637;47.760;-122.022;2024-01-16T03:36:01;15.2;;;13.7;;
73421;SDS011;61637;47.760;-122.022;2024-01-16T03:38:00;15.1;;;13.6;;
73421;SDS011;61637;47.760;-122.022;2024-01-16T03:40:01;14.8;;;13.5;;
73421;SDS011;61637;47.760;-122.022;2024-01-16T03:42:01;14.3;;;12.9;;
73421;SDS011;61637;47.760;-122.022;2024-01-16T03:44:00;15.1;;;13.7;;
73421;SDS011;61637;47.760;-122.022;2024-01-16T03:46:01;25.9;;;21.2;;
73421;SDS011;61637;47.760;-122.022;2024-01-16T03:48:02;42.3;;;32.1;;
73421;SDS011;61637;47.760;-122.022;2024-01-16T03:50:00;49.3;;;38.5;;
73421;SDS011;61637;47.760;-122.022;2024-01-16T03:52:01;44.1;;;35.5;;
73421;SDS011;61637;47.760;-122.022;2024-01-16T03:54:01;44.1;;;35.5;;
73421;SDS011;61637;47.760;-122.022;2024-01-16T03:56:01;39.8;;;33.5;;
73421;SDS011;61637;47.760;-122.022;2024-01-16T03:58:00;35.1;;;29.9;;
73421;SDS011;61637;47.760;-122.022;2024-01-16T04:00:01;34.9;;;31.1;;
73421;SDS011;61637;47.760;-122.022;2024-01-16T04:02:01;32.3;;;29.0;;
73421;SDS011;61637;47.760;-122.022;2024-01-16T04:04:00;28.3;;;25.5;;
73421;SDS011;61637;47.760;-122.022;2024-01-16T04:06:01;24.4;;;21.9;;
73421;SDS011;61637;47.760;-122.022;2024-01-16T04:08:00;23.4;;;21.1;;
73421;SDS011;61637;47.760;-122.022;2024-01-16T04:10:00;23.5;;;21.1;;
73421;SDS011;61637;47.760;-122.022;2024-01-16T04:12:01;20.6;;;18.5;;
73421;SDS011;61637;47.760;-122.022;2024-01-16T04:14:01;19.7;;;17.8;;
73421;SDS011;61637;47.760;-122.022;2024-01-16T04:16:00;18.3;;;16.6;;
73421;SDS011;61637;47.760;-122.022;2024-01-16T04:18:01;18.9;;;17.1;;
73421;SDS011;61637;47.760;-122.022;2024-01-16T04:20:00;18.5;;;16.6;;
73421;SDS011;61637;47.760;-122.022;2024-01-16T04:22:01;19.3;;;17.5;;
73421;SDS011;61637;47.760;-122.022;2024-01-16T04:24:00;17.9;;;16.2;;
73421;SDS011;61637;47.760;-122.022;2024-01-16T04:26:00;18.1;;;16.2;;
73421;SDS011;61637;47.760;-122.022;2024-01-16T04:28:01;17.9;;;16.1;;
73421;SDS011;61637;47.760;-122.022;2024-01-16T04:30:01;18.5;;;16.7;;
73421;SDS011;61637;47.760;-122.022;2024-01-16T04:32:00;17.7;;;16.1;;
73421;SDS011;61637;47.760;-122.022;2024-01-16T04:34:00;16.2;;;14.6;;
73421;SDS011;61637;47.760;-122.022;2024-01-16T04:36:01;15.7;;;14.2;;
73421;SDS011;61637;47.760;-122.022;2024-01-16T04:38:00;15.3;;;13.9;;
73421;SDS011;61637;47.760;-122.022;2024-01-16T04:40:00;14.9;;;13.4;;
73421;SDS011;61637;47.760;-122.022;2024-01-16T04:42:01;16.1;;;14.5;;
73421;SDS011;61637;47.760;-122.022;2024-01-16T04:44:00;16.1;;;14.5;;
73421;SDS011;61637;47.760;-122.022;2024-01-16T04:46:01;16.5;;;14.9;;
73421;SDS011;61637;47.760;-122.022;2024-01-16T04:48:01;16.5;;;14.9;;
73421;SDS011;61637;47.760;-122.022;2024-01-16T04:50:00;14.5;;;13.1;;
73421;SDS011;61637;47.760;-122.022;2024-01-16T04:52:00;13.9;;;12.5;;
73421;SDS011;61637;47.760;-122.022;2024-01-16T04:54:01;14.7;;;13.2;;
73421;SDS011;61637;47.760;-122.022;2024-01-16T04:56:00;15.7;;;14.2;;
73421;SDS011;61637;47.760;-122.022;2024-01-16T04:58:00;14.2;;;12.8;;
73421;SDS011;61637;47.760;-122.022;2024-01-16T05:00:00;15.4;;;13.9;;
73421;SDS011;61637;47.760;-122.022;2024-01-16T05:02:00;14.4;;;12.9;;
73421;SDS011;61637;47.760;-122.022;2024-01-16T05:04:00;15.0;;;13.5;;
73421;SDS011;61637;47.760;-122.022;2024-01-16T05:06:01;15.8;;;14.2;;
73421;SDS011;61637;47.760;-122.022;2024-01-16T05:08:01;15.8;;;14.2;;
73421;SDS011;61637;47.760;-122.022;2024-01-16T05:10:00;14.2;;;12.7;;
73421;SDS011;61637;47.760;-122.022;2024-01-16T05:12:00;14.9;;;13.5;;
73421;SDS011;61637;47.760;-122.022;2024-01-16T05:14:01;13.8;;;12.4;;
73421;SDS011;61637;47.760;-122.022;2024-01-16T05:16:00;15.3;;;13.8;;
73421;SDS011;61637;47.760;-122.022;2024-01-16T05:18:00;14.7;;;13.3;;
73421;SDS011;61637;47.760;-122.022;2024-01-16T05:20:02;15.4;;;13.5;;
73421;SDS011;61637;47.760;-122.022;2024-01-16T05:22:00;14.6;;;13.0;;
73421;SDS011;61637;47.760;-122.022;2024-01-16T05:24:00;14.5;;;13.1;;
73421;SDS011;61637;47.760;-122.022;2024-01-16T05:26:00;15.5;;;13.9;;
73421;SDS011;61637;47.760;-122.022;2024-01-16T05:28:01;17.0;;;15.2;;
73421;SDS011;61637;47.760;-122.022;2024-01-16T05:30:01;16.3;;;14.6;;
73421;SDS011;61637;47.760;-122.022;2024-01-16T05:32:00;15.3;;;13.6;;
73421;SDS011;61637;47.760;-122.022;2024-01-16T05:34:01;15.2;;;12.5;;
73421;SDS011;61637;47.760;-122.022;2024-01-16T05:36:01;13.8;;;12.5;;
73421;SDS011;61637;47.760;-122.022;2024-01-16T05:38:00;14.4;;;12.3;;
73421;SDS011;61637;47.760;-122.022;2024-01-16T05:40:02;15.3;;;12.4;;
73421;SDS011;61637;47.760;-122.022;2024-01-16T05:42:00;14.2;;;12.8;;
73421;SDS011;61637;47.760;-122.022;2024-01-16T05:44:01;14.8;;;13.2;;
73421;SDS011;61637;47.760;-122.022;2024-01-16T05:46:00;14.2;;;12.7;;
73421;SDS011;61637;47.760;-122.022;2024-01-16T05:48:00;15.1;;;13.1;;
73421;SDS011;61637;47.760;-122.022;2024-01-16T05:50:00;15.4;;;13.9;;
73421;SDS011;61637;47.760;-122.022;2024-01-16T05:52:01;14.2;;;12.7;;
73421;SDS011;61637;47.760;-122.022;2024-01-16T05:54:01;15.1;;;13.5;;
73421;SDS011;61637;47.760;-122.022;2024-01-16T05:56:01;14.5;;;13.0;;
73421;SDS011;61637;47.760;-122.022;2024-01-16T05:58:00;14.1;;;12.6;;
73421;SDS011;61637;47.760;-122.022;2024-01-16T06:00:01;14.8;;;13.3;;
73421;SDS011;61637;47.760;-122.022;2024-01-16T06:02:01;14.6;;;13.1;;
73421;SDS011;61637;47.760;-122.022;2024-01-16T06:04:01;14.3;;;12.9;;
73421;SDS011;61637;47.760;-122.022;2024-01-16T06:06:00;13.3;;;11.9;;
73421;SDS011;61637;47.760;-122.022;2024-01-16T06:08:00;13.3;;;12.0;;
73421;SDS011;61637;47.760;-122.022;2024-01-16T06:10:00;13.8;;;12.4;;
73421;SDS011;61637;47.760;-122.022;2024-01-16T06:12:00;14.3;;;12.8;;
73421;SDS011;61637;47.760;-122.022;2024-01-16T06:14:01;12.4;;;11.0;;
73421;SDS011;61637;47.760;-122.022;2024-01-16T06:16:01;12.1;;;10.9;;
73421;SDS011;61637;47.760;-122.022;2024-01-16T06:18:00;11.8;;;10.6;;
73421;SDS011;61637;47.760;-122.022;2024-01-16T06:20:01;12.2;;;10.5;;
73421;SDS011;61637;47.760;-122.022;2024-01-16T06:22:01;11.6;;;9.9;;
73421;SDS011;61637;47.760;-122.022;2024-01-16T06:24:00;11.2;;;10.0;;
73421;SDS011;61637;47.760;-122.022;2024-01-16T06:26:00;12.0;;;10.2;;
73421;SDS011;61637;47.760;-122.022;2024-01-16T06:28:02;10.9;;;9.8;;
73421;SDS011;61637;47.760;-122.022;2024-01-16T06:30:00;11.7;;;9.9;;
73421;SDS011;61637;47.760;-122.022;2024-01-16T06:32:01;11.7;;;10.5;;
73421;SDS011;61637;47.760;-122.022;2024-01-16T06:34:00;11.2;;;10.1;;
73421;SDS011;61637;47.760;-122.022;2024-01-16T06:36:02;11.3;;;10.2;;
73421;SDS011;61637;47.760;-122.022;2024-01-16T06:38:01;10.9;;;9.8;;
73421;SDS011;61637;47.760;-122.022;2024-01-16T06:40:01;11.7;;;9.4;;
73421;SDS011;61637;47.760;-122.022;2024-01-16T06:42:00;10.5;;;9.4;;
73421;SDS011;61637;47.760;-122.022;2024-01-16T06:44:00;10.5;;;9.4;;
73421;SDS011;61637;47.760;-122.022;2024-01-16T06:46:00;12.1;;;10.2;;
73421;SDS011;61637;47.760;-122.022;2024-01-16T06:48:00;11.2;;;9.8;;
73421;SDS011;61637;47.760;-122.022;2024-01-16T06:50:00;11.1;;;9.9;;
73421;SDS011;61637;47.760;-122.022;2024-01-16T06:52:01;11.1;;;10.0;;
73421;SDS011;61637;47.760;-122.022;2024-01-16T06:54:01;11.3;;;10.1;;
73421;SDS011;61637;47.760;-122.022;2024-01-16T06:56:00;12.4;;;11.1;;
73421;SDS011;61637;47.760;-122.022;2024-01-16T06:58:00;11.6;;;10.5;;
73421;SDS011;61637;47.760;-122.022;2024-01-16T07:00:00;12.1;;;10.9;;
73421;SDS011;61637;47.760;-122.022;2024-01-16T07:02:01;12.2;;;11.0;;
73421;SDS011;61637;47.760;-122.022;2024-01-16T07:04:02;11.6;;;10.5;;
73421;SDS011;61637;47.760;-122.022;2024-01-16T07:06:00;12.5;;;11.3;;
73421;SDS011;61637;47.760;-122.022;2024-01-16T07:08:00;12.2;;;10.6;;
73421;SDS011;61637;47.760;-122.022;2024-01-16T07:10:01;12.9;;;11.5;;
73421;SDS011;61637;47.760;-122.022;2024-01-16T07:12:00;12.4;;;11.2;;
73421;SDS011;61637;47.760;-122.022;2024-01-16T07:14:01;11.1;;;10.0;;
73421;SDS011;61637;47.760;-122.022;2024-01-16T07:16:01;13.1;;;11.8;;
73421;SDS011;61637;47.760;-122.022;2024-01-16T07:18:01;12.7;;;11.4;;
73421;SDS011;61637;47.760;-122.022;2024-01-16T07:20:00;11.9;;;10.6;;
73421;SDS011;61637;47.760;-122.022;2024-01-16T07:22:00;11.7;;;10.6;;
73421;SDS011;61637;47.760;-122.022;2024-01-16T07:24:01;12.3;;;11.1;;
73421;SDS011;61637;47.760;-122.022;2024-01-16T07:26:00;11.2;;;10.1;;
73421;SDS011;61637;47.760;-122.022;2024-01-16T07:28:01;11.7;;;10.4;;
73421;SDS011;61637;47.760;-122.022;2024-01-16T07:30:01;12.1;;;10.7;;
73421;SDS011;61637;47.760;-122.022;2024-01-16T07:32:01;11.9;;;10.0;;
73421;SDS011;61637;47.760;-122.022;2024-01-16T07:34:00;11.3;;;9.9;;
73421;SDS011;61637;47.760;-122.022;2024-01-16T07:36:01;10.4;;;9.4;;
73421;SDS011;61637;47.760;-122.022;2024-01-16T07:38:00;11.1;;;9.8;;
73421;SDS011;61637;47.760;-122.022;2024-01-16T07:40:01;10.5;;;9.4;;
73421;SDS011;61637;47.760;-122.022;2024-01-16T07:42:00;10.4;;;9.2;;
73421;SDS011;61637;47.760;-122.022;2024-01-16T07:44:01;11.1;;;9.6;;
73421;SDS011;61637;47.760;-122.022;2024-01-16T07:46:01;10.4;;;9.3;;
73421;SDS011;61637;47.760;-122.022;2024-01-16T07:48:00;10.4;;;9.3;;
73421;SDS011;61637;47.760;-122.022;2024-01-16T07:50:00;12.1;;;9.5;;
73421;SDS011;61637;47.760;-122.022;2024-01-16T07:52:00;12.6;;;9.7;;
73421;SDS011;61637;47.760;-122.022;2024-01-16T07:54:05;10.6;;;9.5;;
73421;SDS011;61637;47.760;-122.022;2024-01-16T07:56:01;10.6;;;9.5;;
73421;SDS011;61637;47.760;-122.022;2024-01-16T07:58:01;10.9;;;9.3;;
73421;SDS011;61637;47.760;-122.022;2024-01-16T08:00:00;10.5;;;9.4;;
73421;SDS011;61637;47.760;-122.022;2024-01-16T08:02:00;10.3;;;9.2;;
73421;SDS011;61637;47.760;-122.022;2024-01-16T08:04:00;10.5;;;9.0;;
73421;SDS011;61637;47.760;-122.022;2024-01-16T08:06:00;10.4;;;9.3;;
73421;SDS011;61637;47.760;-122.022;2024-01-16T08:08:01;10.9;;;9.7;;
73421;SDS011;61637;47.760;-122.022;2024-01-16T08:10:01;11.6;;;9.1;;
73421;SDS011;61637;47.760;-122.022;2024-01-16T08:12:00;9.7;;;8.6;;
73421;SDS011;61637;47.760;-122.022;2024-01-16T08:14:00;10.2;;;9.0;;
73421;SDS011;61637;47.760;-122.022;2024-01-16T08:16:00;15.6;;;9.4;;
73421;SDS011;61637;47.760;-122.022;2024-01-16T08:18:00;10.2;;;9.0;;
73421;SDS011;61637;47.760;-122.022;2024-01-16T08:20:00;12.0;;;10.0;;
73421;SDS011;61637;47.760;-122.022;2024-01-16T08:22:01;11.4;;;9.6;;
73421;SDS011;61637;47.760;-122.022;2024-01-16T08:24:02;11.3;;;9.6;;
73421;SDS011;61637;47.760;-122.022;2024-01-16T08:26:01;11.2;;;9.4;;
73421;SDS011;61637;47.760;-122.022;2024-01-16T08:28:00;11.5;;;9.1;;
73421;SDS011;61637;47.760;-122.022;2024-01-16T08:30:00;11.7;;;9.5;;
73421;SDS011;61637;47.760;-122.022;2024-01-16T08:32:00;11.5;;;9.4;;
73421;SDS011;61637;47.760;-122.022;2024-01-16T08:34:01;10.7;;;9.0;;
73421;SDS011;61637;47.760;-122.022;2024-01-16T08:36:01;11.8;;;8.8;;
73421;SDS011;61637;47.760;-122.022;2024-01-16T08:38:00;10.6;;;9.5;;
73421;SDS011;61637;47.760;-122.022;2024-01-16T08:40:00;10.6;;;9.0;;
73421;SDS011;61637;47.760;-122.022;2024-01-16T08:42:01;11.8;;;8.9;;
73421;SDS011;61637;47.760;-122.022;2024-01-16T08:44:00;11.3;;;9.3;;
73421;SDS011;61637;47.760;-122.022;2024-01-16T08:46:02;10.9;;;9.0;;
73421;SDS011;61637;47.760;-122.022;2024-01-16T08:48:00;10.1;;;9.0;;
73421;SDS011;61637;47.760;-122.022;2024-01-16T08:50:01;11.2;;;9.2;;
73421;SDS011;61637;47.760;-122.022;2024-01-16T08:52:01;10.6;;;8.7;;
73421;SDS011;61637;47.760;-122.022;2024-01-16T08:54:00;11.5;;;9.0;;
73421;SDS011;61637;47.760;-122.022;2024-01-16T08:56:01;10.5;;;9.1;;
73421;SDS011;61637;47.760;-122.022;2024-01-16T08:58:01;9.7;;;8.1;;
73421;SDS011;61637;47.760;-122.022;2024-01-16T09:00:00;10.5;;;8.8;;
73421;SDS011;61637;47.760;-122.022;2024-01-16T09:02:01;10.1;;;8.8;;
73421;SDS011;61637;47.760;-122.022;2024-01-16T09:04:00;10.6;;;8.7;;
73421;SDS011;61637;47.760;-122.022;2024-01-16T09:06:01;11.1;;;9.1;;
73421;SDS011;61637;47.760;-122.022;2024-01-16T09:08:01;9.8;;;8.5;;
73421;SDS011;61637;47.760;-122.022;2024-01-16T09:10:01;10.0;;;8.4;;
73421;SDS011;61637;47.760;-122.022;2024-01-16T09:12:00;9.1;;;8.1;;
73421;SDS011;61637;47.760;-122.022;2024-01-16T09:14:00;9.4;;;8.3;;
73421;SDS011;61637;47.760;-122.022;2024-01-16T09:16:00;10.3;;;8.9;;
73421;SDS011;61637;47.760;-122.022;2024-01-16T09:18:00;12.1;;;9.3;;
73421;SDS011;61637;47.760;-122.022;2024-01-16T09:20:01;10.9;;;9.1;;
73421;SDS011;61637;47.760;-122.022;2024-01-16T09:22:01;12.8;;;9.5;;
73421;SDS011;61637;47.760;-122.022;2024-01-16T09:24:01;14.3;;;10.8;;
73421;SDS011;61637;47.760;-122.022;2024-01-16T09:26:00;15.2;;;11.0;;
73421;SDS011;61637;47.760;-122.022;2024-01-16T09:28:01;27.0;;;17.1;;
73421;SDS011;61637;47.760;-122.022;2024-01-16T09:30:00;27.5;;;16.4;;
73421;SDS011;61637;47.760;-122.022;2024-01-16T09:32:01;20.4;;;14.1;;
73421;SDS011;61637;47.760;-122.022;2024-01-16T09:34:01;17.9;;;12.0;;
73421;SDS011;61637;47.760;-122.022;2024-01-16T09:36:00;18.6;;;12.1;;
73421;SDS011;61637;47.760;-122.022;2024-01-16T09:38:00;15.4;;;11.8;;
73421;SDS011;61637;47.760;-122.022;2024-01-16T09:40:01;14.1;;;11.1;;
73421;SDS011;61637;47.760;-122.022;2024-01-16T09:42:00;12.7;;;9.7;;
73421;SDS011;61637;47.760;-122.022;2024-01-16T09:44:01;11.6;;;9.6;;
73421;SDS011;61637;47.760;-122.022;2024-01-16T09:46:01;11.5;;;9.5;;
73421;SDS011;61637;47.760;-122.022;2024-01-16T09:48:01;11.0;;;9.1;;
73421;SDS011;61637;47.760;-122.022;2024-01-16T09:50:02;11.1;;;8.9;;
73421;SDS011;61637;47.760;-122.022;2024-01-16T09:52:00;10.1;;;8.6;;
73421;SDS011;61637;47.760;-122.022;2024-01-16T09:54:01;10.5;;;8.4;;
73421;SDS011;61637;47.760;-122.022;2024-01-16T09:56:03;9.5;;;7.8;;
73421;SDS011;61637;47.760;-122.022;2024-01-16T09:58:02;10.8;;;8.3;;
73421;SDS011;61637;47.760;-122.022;2024-01-16T10:00:02;9.5;;;8.5;;
73421;SDS011;61637;47.760;-122.022;2024-01-16T10:02:01;9.5;;;8.5;;
73421;SDS011;61637;47.760;-122.022;2024-01-16T10:04:01;10.0;;;8.8;;
73421;SDS011;61637;47.760;-122.022;2024-01-16T10:06:03;9.2;;;8.2;;
73421;SDS011;61637;47.760;-122.022;2024-01-16T10:08:00;9.8;;;8.6;;
73421;SDS011;61637;47.760;-122.022;2024-01-16T10:10:01;10.4;;;8.2;;
73421;SDS011;61637;47.760;-122.022;2024-01-16T10:12:01;10.1;;;8.5;;
73421;SDS011;61637;47.760;-122.022;2024-01-16T10:14:01;9.6;;;8.3;;
73421;SDS011;61637;47.760;-122.022;2024-01-16T10:16:00;9.2;;;8.3;;
73421;SDS011;61637;47.760;-122.022;2024-01-16T10:18:00;8.9;;;8.0;;
73421;SDS011;61637;47.760;-122.022;2024-01-16T10:20:00;9.2;;;8.2;;
73421;SDS011;61637;47.760;-122.022;2024-01-16T10:22:01;8.8;;;7.9;;
73421;SDS011;61637;47.760;-122.022;2024-01-16T10:24:10;9.8;;;8.8;;
73421;SDS011;61637;47.760;-122.022;2024-01-16T10:26:05;9.6;;;8.6;;
73421;SDS011;61637;47.760;-122.022;2024-01-16T10:28:04;9.9;;;8.2;;
73421;SDS011;61637;47.760;-122.022;2024-01-16T10:30:02;9.5;;;8.5;;
73421;SDS011;61637;47.760;-122.022;2024-01-16T10:32:00;9.4;;;8.4;;
73421;SDS011;61637;47.760;-122.022;2024-01-16T10:34:00;9.4;;;8.4;;
73421;SDS011;61637;47.760;-122.022;2024-01-16T10:36:08;9.8;;;8.6;;
73421;SDS011;61637;47.760;-122.022;2024-01-16T10:38:01;9.6;;;8.6;;
73421;SDS011;61637;47.760;-122.022;2024-01-16T10:40:00;9.4;;;8.3;;
73421;SDS011;61637;47.760;-122.022;2024-01-16T10:42:00;9.5;;;8.5;;
73421;SDS011;61637;47.760;-122.022;2024-01-16T10:44:05;9.7;;;8.7;;
73421;SDS011;61637;47.760;-122.022;2024-01-16T10:46:08;10.3;;;8.3;;
73421;SDS011;61637;47.760;-122.022;2024-01-16T10:48:02;10.3;;;8.6;;
73421;SDS011;61637;47.760;-122.022;2024-01-16T10:50:01;9.6;;;8.7;;
73421;SDS011;61637;47.760;-122.022;2024-01-16T10:52:01;10.0;;;9.0;;
73421;SDS011;61637;47.760;-122.022;2024-01-16T10:54:02;9.8;;;8.5;;
73421;SDS011;61637;47.760;-122.022;2024-01-16T10:56:02;9.3;;;8.2;;
73421;SDS011;61637;47.760;-122.022;2024-01-16T10:58:03;9.6;;;8.6;;
73421;SDS011;61637;47.760;-122.022;2024-01-16T11:00:03;9.2;;;8.2;;
73421;SDS011;61637;47.760;-122.022;2024-01-16T11:02:02;9.4;;;8.4;;
73421;SDS011;61637;47.760;-122.022;2024-01-16T11:04:01;9.5;;;8.6;;
73421;SDS011;61637;47.760;-122.022;2024-01-16T11:06:01;9.7;;;8.7;;
73421;SDS011;61637;47.760;-122.022;2024-01-16T11:08:01;9.5;;;8.4;;
73421;SDS011;61637;47.760;-122.022;2024-01-16T11:10:01;9.3;;;8.3;;
73421;SDS011;61637;47.760;-122.022;2024-01-16T11:12:01;10.8;;;8.2;;
73421;SDS011;61637;47.760;-122.022;2024-01-16T11:14:03;9.7;;;8.0;;
73421;SDS011;61637;47.760;-122.022;2024-01-16T11:16:02;10.7;;;8.3;;
73421;SDS011;61637;47.760;-122.022;2024-01-16T11:18:02;9.0;;;8.0;;
73421;SDS011;61637;47.760;-122.022;2024-01-16T11:20:01;8.8;;;7.9;;
73421;SDS011;61637;47.760;-122.022;2024-01-16T11:22:01;9.4;;;8.4;;
73421;SDS011;61637;47.760;-122.022;2024-01-16T11:24:01;9.2;;;8.3;;
73421;SDS011;61637;47.760;-122.022;2024-01-16T11:28:12;10.5;;;7.9;;
73421;SDS011;61637;47.760;-122.022;2024-01-16T11:30:01;8.8;;;7.9;;
73421;SDS011;61637;47.760;-122.022;2024-01-16T11:32:00;9.8;;;8.1;;
73421;SDS011;61637;47.760;-122.022;2024-01-16T11:34:02;9.2;;;8.3;;
73421;SDS011;61637;47.760;-122.022;2024-01-16T11:36:00;9.2;;;8.3;;